createdAt,value
2017-07-21T00:00:02.662Z,15.3
2017-07-21T00:05:02.708Z,15.5
2017-07-21T00:10:03.232Z,15.5
2017-07-21T00:15:02.654Z,15.3
2017-07-21T00:20:03.020Z,15.3
2017-07-21T00:25:02.423Z,15.1
2017-07-21T00:30:02.895Z,15.1
2017-07-21T00:35:03.177Z,15.0
2017-07-21T00:40:02.672Z,15.0
2017-07-21T00:45:02.967Z,15.0
2017-07-21T00:50:03.237Z,14.8
2017-07-21T00:55:02.498Z,14.6
2017-07-21T01:00:02.909Z,14.8
2017-07-21T01:05:02.316Z,14.6
2017-07-21T01:10:02.779Z,14.5
2017-07-21T01:15:03.185Z,14.3
2017-07-21T01:20:02.562Z,14.3
2017-07-21T01:25:02.830Z,14.3
2017-07-21T01:30:02.296Z,14.3
2017-07-21T01:35:02.603Z,14.3
2017-07-21T01:40:03.045Z,14.3
2017-07-21T01:45:02.471Z,14.1
2017-07-21T01:50:02.957Z,14.1
2017-07-21T01:55:02.281Z,14.1
2017-07-21T02:00:02.707Z,14.1
2017-07-21T02:05:03.043Z,14.1
2017-07-21T02:10:02.431Z,14.1
2017-07-21T02:15:02.711Z,13.8
2017-07-21T02:20:03.109Z,13.6
2017-07-21T02:25:02.555Z,13.6
2017-07-21T02:30:02.951Z,13.6
2017-07-21T02:35:02.408Z,13.6
2017-07-21T02:40:02.905Z,13.6
2017-07-21T02:45:03.274Z,13.6
2017-07-21T02:50:02.580Z,13.5
2017-07-21T02:55:02.980Z,13.3
2017-07-21T03:00:02.344Z,13.3
2017-07-21T03:05:02.704Z,13.3
2017-07-21T03:10:03.180Z,13.1
2017-07-21T03:15:02.450Z,13.1
2017-07-21T03:20:02.785Z,13.1
2017-07-21T03:25:03.065Z,12.8
2017-07-21T03:30:02.318Z,12.8
2017-07-21T03:35:02.782Z,12.8
2017-07-21T03:40:03.125Z,12.6
2017-07-21T03:45:02.506Z,12.6
2017-07-21T03:50:02.807Z,12.6
2017-07-21T03:55:03.253Z,12.6
2017-07-21T04:00:02.869Z,12.6
2017-07-21T04:05:03.275Z,12.6
2017-07-21T04:10:02.682Z,12.5
2017-07-21T04:15:03.125Z,12.5
2017-07-21T04:20:02.458Z,12.3
2017-07-21T04:25:02.711Z,12.3
2017-07-21T04:30:02.402Z,12.3
2017-07-21T04:35:02.704Z,12.3
2017-07-21T04:40:03.206Z,12.5
2017-07-21T04:45:02.475Z,12.6
2017-07-21T04:50:02.803Z,12.6
2017-07-21T04:55:03.272Z,12.8
2017-07-21T05:00:02.660Z,12.8
2017-07-21T05:05:03.134Z,12.8
2017-07-21T05:10:02.567Z,13.1
2017-07-21T05:15:02.901Z,13.1
2017-07-21T05:20:02.455Z,13.5
2017-07-21T05:25:03.057Z,13.5
2017-07-21T05:30:02.562Z,13.6
2017-07-21T05:35:03.112Z,14.1
2017-07-21T05:40:02.605Z,14.5
2017-07-21T05:45:02.926Z,14.3
2017-07-21T05:50:02.291Z,14.3
2017-07-21T05:55:02.730Z,14.5
2017-07-21T06:00:03.180Z,14.5
2017-07-21T06:05:02.671Z,14.5
2017-07-21T06:10:03.041Z,14.5
2017-07-21T06:15:02.348Z,14.8
2017-07-21T06:20:02.840Z,15.0
2017-07-21T06:25:02.315Z,15.1
2017-07-21T06:30:02.640Z,15.1
2017-07-21T06:35:03.247Z,15.3
2017-07-21T06:40:02.564Z,15.5
2017-07-21T06:45:02.984Z,15.6
2017-07-21T06:50:02.503Z,15.8
2017-07-21T06:55:02.798Z,15.8
2017-07-21T07:00:03.242Z,16.0
2017-07-21T07:05:02.710Z,16.2
2017-07-21T07:10:03.119Z,16.2
2017-07-21T07:15:02.530Z,16.7
2017-07-21T07:20:02.826Z,16.6
2017-07-21T07:25:03.299Z,16.7
2017-07-21T07:30:02.740Z,17.0
2017-07-21T07:35:03.216Z,17.2
2017-07-21T07:40:02.479Z,17.3
2017-07-21T07:45:02.928Z,17.2
2017-07-21T07:50:02.283Z,17.7
2017-07-21T07:55:02.604Z,17.7
2017-07-21T08:00:03.077Z,17.8
2017-07-21T08:05:02.497Z,18.2
2017-07-21T08:10:02.854Z,18.8
2017-07-21T08:15:03.185Z,19.0
2017-07-21T08:20:02.522Z,20.1
2017-07-21T08:25:02.870Z,20.2
2017-07-21T08:30:02.349Z,20.1
2017-07-21T08:35:02.698Z,20.2
2017-07-21T08:40:02.330Z,21.0
2017-07-21T08:45:02.794Z,21.5
2017-07-21T08:50:02.339Z,21.2
2017-07-21T08:55:02.634Z,21.5
2017-07-21T09:00:03.067Z,20.7
2017-07-21T09:05:02.479Z,21.7
2017-07-21T09:10:02.994Z,21.5
2017-07-21T09:15:02.291Z,21.5
2017-07-21T09:20:02.633Z,22.3
2017-07-21T09:25:02.979Z,22.3
2017-07-21T09:30:02.340Z,22.0
2017-07-21T09:35:02.662Z,23.0
2017-07-21T09:40:03.162Z,21.6
2017-07-21T09:45:02.585Z,23.2
2017-07-21T09:50:03.030Z,23.0
2017-07-21T09:55:02.333Z,23.3
2017-07-21T10:00:02.776Z,22.7
2017-07-21T10:05:03.248Z,23.1
2017-07-21T10:10:02.590Z,22.6
2017-07-21T10:15:02.914Z,23.3
2017-07-21T10:20:02.402Z,23.1
2017-07-21T10:25:02.844Z,21.8
2017-07-21T10:30:03.171Z,22.7
2017-07-21T10:35:02.603Z,23.7
2017-07-21T10:40:03.103Z,23.0
2017-07-21T10:45:02.394Z,23.7
2017-07-21T10:50:02.752Z,23.7
2017-07-21T10:55:03.228Z,23.8
2017-07-21T11:00:02.474Z,22.7
2017-07-21T11:05:02.812Z,23.2
2017-07-21T11:15:03.161Z,23.8
2017-07-21T11:20:02.430Z,24.0
2017-07-21T11:25:02.722Z,23.8
2017-07-21T11:30:03.286Z,24.2
2017-07-21T11:35:02.602Z,24.0
2017-07-21T11:40:03.085Z,23.7
2017-07-21T11:45:02.501Z,24.2
2017-07-21T11:50:02.902Z,24.2
2017-07-21T11:55:03.174Z,24.2
2017-07-21T12:00:02.549Z,24.2
2017-07-21T12:05:02.894Z,24.8
2017-07-21T12:10:03.271Z,25.0
2017-07-21T12:15:02.683Z,24.0
2017-07-21T12:20:03.164Z,25.8
2017-07-21T12:25:02.580Z,25.1
2017-07-21T12:30:02.921Z,24.2
2017-07-21T12:35:02.391Z,24.5
2017-07-21T12:40:02.746Z,25.3
2017-07-21T12:45:02.962Z,26.0
2017-07-21T12:50:03.301Z,25.3
2017-07-21T12:55:02.557Z,25.8
2017-07-21T13:00:02.870Z,25.0
2017-07-21T13:05:02.423Z,25.1
2017-07-21T13:10:02.919Z,24.5
2017-07-21T13:15:02.404Z,25.6
2017-07-21T13:20:02.759Z,25.3
2017-07-21T13:25:02.272Z,26.7
2017-07-21T13:30:02.711Z,26.7
2017-07-21T13:35:03.264Z,26.0
2017-07-21T13:40:02.705Z,25.5
2017-07-21T13:45:03.160Z,25.3
2017-07-21T13:50:02.651Z,26.2
2017-07-21T13:55:02.968Z,27.7
2017-07-21T14:00:03.300Z,26.7
2017-07-21T14:05:02.798Z,27.2
2017-07-21T14:10:02.378Z,27.2
2017-07-21T14:15:02.798Z,26.8
2017-07-21T14:20:02.406Z,28.5
2017-07-21T14:25:02.725Z,27.2
2017-07-21T14:30:03.083Z,27.7
2017-07-21T14:35:02.476Z,27.7
2017-07-21T14:40:02.945Z,27.5
2017-07-21T14:45:02.321Z,27.7
2017-07-21T14:50:02.703Z,27.2
2017-07-21T14:55:03.016Z,28.7
2017-07-21T15:00:02.444Z,30.1
2017-07-21T15:05:02.805Z,28.1
2017-07-21T15:10:03.118Z,28.7
2017-07-21T15:15:02.585Z,26.6
2017-07-21T15:20:02.897Z,29.1
2017-07-21T15:25:02.338Z,27.8
2017-07-21T15:30:02.827Z,27.7
2017-07-21T15:35:03.191Z,28.5
2017-07-21T15:40:02.694Z,27.7
2017-07-21T15:45:03.216Z,27.5
2017-07-21T15:50:02.521Z,27.2
2017-07-21T15:55:03.015Z,28.1
2017-07-21T16:00:02.477Z,27.8
2017-07-21T16:05:03.046Z,28.6
2017-07-21T16:10:02.543Z,27.5
2017-07-21T16:15:02.875Z,27.7
2017-07-21T16:20:03.212Z,27.2
2017-07-21T16:25:02.694Z,27.1
2017-07-21T16:30:02.988Z,27.8
2017-07-21T16:35:02.294Z,28.0
2017-07-21T16:40:02.738Z,28.0
2017-07-21T16:45:03.210Z,26.8
2017-07-21T16:50:02.648Z,27.7
2017-07-21T16:55:02.895Z,26.6
2017-07-21T17:00:02.316Z,27.2
2017-07-21T17:05:02.636Z,26.1
2017-07-21T17:10:02.972Z,27.8
2017-07-21T17:15:02.361Z,28.1
2017-07-21T17:20:02.788Z,28.5
2017-07-21T17:25:03.266Z,27.7
2017-07-21T17:30:02.546Z,28.1
2017-07-21T17:35:02.911Z,26.6
2017-07-21T17:40:02.353Z,27.1
2017-07-21T17:45:02.805Z,25.7
2017-07-21T17:50:03.251Z,26.5
2017-07-21T17:55:02.660Z,26.7
2017-07-21T18:00:03.123Z,25.3
2017-07-21T18:05:02.370Z,25.0
2017-07-21T18:10:02.905Z,24.8
2017-07-21T18:15:03.234Z,25.1
2017-07-21T18:20:02.715Z,24.7
2017-07-21T18:25:02.998Z,24.6
2017-07-21T18:30:02.386Z,24.6
2017-07-21T18:35:02.733Z,24.5
2017-07-21T18:40:03.194Z,23.8
2017-07-21T18:45:02.555Z,23.3
2017-07-21T18:50:03.037Z,22.6
2017-07-21T18:55:02.475Z,22.5
2017-07-21T19:00:02.882Z,22.1
2017-07-21T19:05:03.248Z,21.8
2017-07-21T19:10:02.620Z,21.7
2017-07-21T19:15:03.059Z,21.6
2017-07-21T19:20:02.545Z,21.6
2017-07-21T19:25:02.867Z,21.3
2017-07-21T19:30:03.185Z,21.2
2017-07-21T19:35:02.693Z,21.2
2017-07-21T19:40:03.110Z,20.8
2017-07-21T19:45:02.534Z,20.7
2017-07-21T19:50:02.917Z,20.7
2017-07-21T19:55:03.222Z,20.6
2017-07-21T20:00:02.548Z,20.3
2017-07-21T20:05:02.834Z,20.3
2017-07-21T20:10:03.139Z,20.2
2017-07-21T20:15:02.505Z,20.2
2017-07-21T20:20:02.963Z,20.1
2017-07-21T20:25:03.229Z,20.0
2017-07-21T20:30:02.566Z,19.7
2017-07-21T20:35:03.066Z,19.7
2017-07-21T20:40:02.374Z,19.7
2017-07-21T20:45:02.779Z,19.7
2017-07-21T20:50:03.266Z,19.5
2017-07-21T20:55:02.669Z,19.3
2017-07-21T21:00:02.903Z,19.3
2017-07-21T21:05:02.295Z,19.3
2017-07-21T21:10:02.655Z,19.2
2017-07-21T21:15:02.484Z,19.3
2017-07-21T21:20:02.791Z,19.2
2017-07-21T21:25:03.241Z,19.2
2017-07-21T21:30:02.831Z,19.3
2017-07-21T21:35:02.282Z,19.3
2017-07-21T21:40:02.716Z,19.2
2017-07-21T21:45:03.142Z,19.0
2017-07-21T21:50:02.585Z,19.0
2017-07-21T21:55:02.908Z,19.0
2017-07-21T22:00:02.371Z,19.0
2017-07-21T22:05:02.635Z,19.0
2017-07-21T22:10:03.081Z,18.8
2017-07-21T22:15:02.508Z,18.8
2017-07-21T22:20:03.017Z,18.8
2017-07-21T22:25:02.517Z,18.8
2017-07-21T22:30:02.949Z,18.8
2017-07-21T22:35:02.359Z,18.8
2017-07-21T22:40:02.764Z,18.8
2017-07-21T22:45:03.164Z,18.8
2017-07-21T22:50:02.593Z,19.0
2017-07-21T22:55:03.027Z,19.0
2017-07-21T23:00:02.735Z,18.8
2017-07-21T23:05:02.970Z,19.0
2017-07-21T23:10:02.491Z,19.0
2017-07-21T23:15:02.998Z,19.0
2017-07-21T23:20:02.451Z,19.0
2017-07-21T23:25:02.876Z,19.1
2017-07-21T23:30:02.459Z,19.0
2017-07-21T23:35:02.779Z,19.1
2017-07-21T23:40:03.278Z,19.2
2017-07-21T23:45:02.680Z,19.2
2017-07-21T23:50:03.133Z,19.2
2017-07-21T23:55:02.501Z,19.2
